Time;durP1;ratioP1;P1;durP2;ratioP2;P2;SDS_P1;SDS_P2;PMS_P1;PMS_P2;Temp;Humidity;BMP_temperature;BMP_pressure;BME280_temperature;BME280_humidity;BME280_pressure;Samples;Min_cycle;Max_cycle;Signal;HPM_P1;HPM_P2
2021/11/10 00:00:07;;;;;;;20.95;11.88;;;;;;;;;;5032827;28;20025;-67
2021/11/10 00:02:33;;;;;;;23.65;11.93;;;;;;;;;;5014940;28;20544;-67
2021/11/10 00:04:59;;;;;;;26.55;12.50;;;;;;;;;;5032341;28;20109;-67
2021/11/10 00:07:25;;;;;;;26.40;12.20;;;;;;;;;;5015201;28;20485;-68
2021/11/10 00:09:51;;;;;;;23.30;12.82;;;;;;;;;;5033082;28;20022;-67
2021/11/10 00:12:17;;;;;;;24.75;13.18;;;;;;;;;;5033136;28;20391;-67
2021/11/10 00:14:43;;;;;;;21.40;11.60;;;;;;;;;;5014333;28;20449;-66
2021/11/10 00:17:09;;;;;;;27.42;11.93;;;;;;;;;;5032257;28;20030;-67
2021/11/10 00:19:35;;;;;;;24.33;12.98;;;;;;;;;;5032397;28;20029;-67
2021/11/10 00:22:01;;;;;;;24.58;12.38;;;;;;;;;;5014695;28;20025;-67
2021/11/10 00:24:27;;;;;;;24.40;12.10;;;;;;;;;;5032024;28;20393;-66
2021/11/10 00:26:53;;;;;;;25.60;12.23;;;;;;;;;;5014781;28;20018;-67
2021/11/10 00:29:19;;;;;;;26.52;12.35;;;;;;;;;;5032076;28;20021;-68
2021/11/10 00:31:45;;;;;;;24.90;12.45;;;;;;;;;;5014017;28;20036;-67
2021/11/10 00:34:11;;;;;;;25.95;11.77;;;;;;;;;;5032115;28;20026;-66
2021/11/10 00:36:37;;;;;;;22.75;11.43;;;;;;;;;;5014280;28;20025;-67
2021/11/10 00:39:03;;;;;;;22.58;11.18;;;;;;;;;;5014078;28;20034;-67
2021/11/10 00:41:29;;;;;;;24.95;11.80;;;;;;;;;;5014303;28;20033;-67
2021/11/10 00:44:00;;;;;;;28.67;11.60;;;;;;;;;;5013801;28;20021;-66
2021/11/10 00:46:26;;;;;;;26.42;12.82;;;;;;;;;;5032136;28;20017;-67
2021/11/10 00:48:52;;;;;;;24.02;12.93;;;;;;;;;;5031660;28;20074;-67
2021/11/10 00:51:18;;;;;;;24.90;12.95;;;;;;;;;;5032034;28;20055;-67
2021/11/10 00:53:44;;;;;;;28.02;12.05;;;;;;;;;;5030767;28;20026;-67
2021/11/10 00:56:10;;;;;;;26.92;13.20;;;;;;;;;;5032003;28;20541;-67
2021/11/10 00:58:36;;;;;;;25.77;12.57;;;;;;;;;;5014117;28;20021;-67
2021/11/10 01:01:02;;;;;;;25.63;12.20;;;;;;;;;;5031535;28;20026;-67
2021/11/10 01:03:28;;;;;;;28.27;12.57;;;;;;;;;;5013967;28;20022;-67
2021/11/10 01:05:55;;;;;;;23.02;12.45;;;;;;;;;;5031683;28;20485;-67
2021/11/10 01:08:21;;;;;;;25.30;13.85;;;;;;;;;;5031786;28;20033;-67
2021/11/10 01:10:47;;;;;;;26.40;13.27;;;;;;;;;;5031696;28;20026;-67
2021/11/10 01:13:13;;;;;;;26.58;12.60;;;;;;;;;;5031900;28;20113;-66
2021/11/10 01:15:42;;;;;;;25.95;12.25;;;;;;;;;;5031817;28;20061;-66
2021/11/10 01:18:08;;;;;;;24.63;12.65;;;;;;;;;;5032246;28;20452;-67
2021/11/10 01:20:34;;;;;;;25.27;12.55;;;;;;;;;;5031944;28;20026;-67
2021/11/10 01:23:00;;;;;;;24.35;12.38;;;;;;;;;;5031401;28;20025;-67
2021/11/10 01:25:26;;;;;;;25.42;12.98;;;;;;;;;;5031024;28;20032;-67
2021/11/10 01:27:53;;;;;;;26.00;11.63;;;;;;;;;;5013816;28;20022;-67
2021/11/10 01:30:19;;;;;;;25.52;12.50;;;;;;;;;;5013843;28;20022;-66
2021/11/10 01:32:45;;;;;;;24.20;11.60;;;;;;;;;;5013842;28;20018;-67
2021/11/10 01:35:12;;;;;;;24.15;11.65;;;;;;;;;;5031356;28;20502;-67
2021/11/10 01:37:38;;;;;;;26.83;12.65;;;;;;;;;;5014017;28;20029;-67
2021/11/10 01:40:04;;;;;;;25.67;12.15;;;;;;;;;;5013442;28;20029;-67
2021/11/10 01:42:30;;;;;;;27.70;12.15;;;;;;;;;;5031331;28;20516;-67
2021/11/10 01:44:57;;;;;;;24.88;13.45;;;;;;;;;;5013421;28;20383;-67
2021/11/10 01:47:23;;;;;;;27.98;13.13;;;;;;;;;;5031335;28;20108;-68
2021/11/10 01:49:49;;;;;;;26.40;12.98;;;;;;;;;;5013657;28;20084;-66
2021/11/10 01:52:16;;;;;;;26.27;13.02;;;;;;;;;;5014279;28;20029;-68
2021/11/10 01:54:43;;;;;;;26.05;12.93;;;;;;;;;;5031726;28;20033;-67
2021/11/10 01:57:10;;;;;;;23.15;11.15;;;;;;;;;;5031166;28;20028;-66
2021/11/10 01:59:38;;;;;;;25.43;12.63;;;;;;;;;;5013495;28;20121;-67
2021/11/10 02:02:06;;;;;;;23.45;12.23;;;;;;;;;;5013697;28;20037;-67
2021/11/10 02:04:33;;;;;;;23.45;12.13;;;;;;;;;;5013126;28;20034;-67
2021/11/10 02:07:00;;;;;;;23.10;11.73;;;;;;;;;;5016850;28;20070;-66
2021/11/10 02:09:26;;;;;;;26.17;12.07;;;;;;;;;;5035290;28;20109;-66
2021/11/10 02:11:53;;;;;;;22.63;11.90;;;;;;;;;;5034957;28;20021;-67
2021/11/10 02:14:20;;;;;;;26.10;12.07;;;;;;;;;;5016992;28;20036;-66
2021/11/10 02:16:47;;;;;;;26.50;11.98;;;;;;;;;;5034898;28;20057;-67
2021/11/10 02:19:14;;;;;;;26.55;13.27;;;;;;;;;;5016905;28;20566;-67
2021/11/10 02:21:49;;;;;;;26.37;13.03;;;;;;;;;;5035241;28;20535;-66
2021/11/10 02:24:16;;;;;;;24.90;12.60;;;;;;;;;;5034783;28;20080;-66
2021/11/10 02:26:43;;;;;;;24.25;12.93;;;;;;;;;;5035062;28;20108;-67
2021/11/10 02:29:10;;;;;;;25.95;12.05;;;;;;;;;;5016847;28;20028;-67
2021/11/10 02:31:36;;;;;;;26.55;13.98;;;;;;;;;;5034709;28;20024;-67
2021/11/10 02:34:03;;;;;;;21.98;12.05;;;;;;;;;;5034208;28;20025;-67
2021/11/10 02:36:30;;;;;;;26.60;12.52;;;;;;;;;;5034331;28;20060;-67
2021/11/10 02:38:58;;;;;;;24.52;12.77;;;;;;;;;;5016339;28;20107;-67
2021/11/10 02:41:24;;;;;;;27.20;13.02;;;;;;;;;;5034159;28;20198;-67
2021/11/10 02:43:50;;;;;;;25.92;12.13;;;;;;;;;;5034040;28;20104;-67
2021/11/10 02:46:16;;;;;;;25.35;12.90;;;;;;;;;;5034120;28;20025;-67
2021/11/10 02:48:42;;;;;;;25.48;13.25;;;;;;;;;;5016052;28;20037;-67
2021/11/10 02:51:08;;;;;;;24.17;13.15;;;;;;;;;;5034247;28;20026;-67
2021/11/10 02:53:34;;;;;;;24.75;12.52;;;;;;;;;;5015871;28;20062;-66
2021/11/10 02:56:00;;;;;;;23.92;12.23;;;;;;;;;;5034151;28;20492;-67
2021/11/10 02:58:30;;;;;;;24.02;12.18;;;;;;;;;;5016196;28;20029;-67
2021/11/10 03:00:56;;;;;;;25.70;12.93;;;;;;;;;;5034003;28;20116;-67
2021/11/10 03:03:22;;;;;;;25.48;12.65;;;;;;;;;;5015470;28;20146;-67
2021/11/10 03:05:48;;;;;;;24.90;12.73;;;;;;;;;;5033857;28;20538;-68
2021/11/10 03:08:19;;;;;;;24.48;11.95;;;;;;;;;;5033732;28;20036;-67
2021/11/10 03:10:45;;;;;;;26.67;12.43;;;;;;;;;;5015959;28;20014;-67
2021/11/10 03:13:11;;;;;;;23.25;11.45;;;;;;;;;;5015608;28;20064;-67
2021/11/10 03:15:38;;;;;;;24.45;12.35;;;;;;;;;;5033537;28;20394;-67
2021/11/10 03:18:04;;;;;;;27.23;13.57;;;;;;;;;;5014394;28;20029;-67
2021/11/10 03:20:30;;;;;;;29.65;13.80;;;;;;;;;;5033377;28;20116;-67
2021/11/10 03:22:56;;;;;;;26.58;12.35;;;;;;;;;;5015754;28;20181;-67
2021/11/10 03:25:22;;;;;;;26.33;12.50;;;;;;;;;;5015297;28;20133;-67
2021/11/10 03:27:48;;;;;;;25.85;11.68;;;;;;;;;;5033249;28;20045;-67
2021/11/10 03:30:14;;;;;;;25.58;13.23;;;;;;;;;;5015587;28;20033;-66
2021/11/10 03:32:41;;;;;;;27.75;13.32;;;;;;;;;;5032951;28;20465;-68
2021/11/10 03:35:07;;;;;;;24.48;12.15;;;;;;;;;;5015086;28;20029;-68
2021/11/10 03:37:34;;;;;;;25.00;11.63;;;;;;;;;;5015273;28;20025;-67
2021/11/10 03:40:00;;;;;;;24.73;11.52;;;;;;;;;;5032874;28;20029;-67
2021/11/10 03:42:26;;;;;;;23.67;11.43;;;;;;;;;;5014980;28;20025;-66
2021/11/10 03:44:52;;;;;;;25.50;11.95;;;;;;;;;;5032774;28;20029;-67
2021/11/10 03:47:18;;;;;;;23.02;11.48;;;;;;;;;;5015018;28;20037;-67
2021/11/10 03:49:44;;;;;;;25.17;12.13;;;;;;;;;;5032707;28;20030;-67
2021/11/10 03:52:11;;;;;;;23.30;11.38;;;;;;;;;;5033018;28;20147;-67
2021/11/10 03:54:37;;;;;;;24.17;12.13;;;;;;;;;;5032516;28;20018;-67
2021/11/10 03:57:03;;;;;;;28.70;12.68;;;;;;;;;;5032788;28;20096;-67
2021/11/10 03:59:29;;;;;;;24.52;11.95;;;;;;;;;;5032844;28;20030;-67
2021/11/10 04:01:55;;;;;;;29.45;12.77;;;;;;;;;;5032790;28;20032;-67
2021/11/10 04:04:21;;;;;;;23.58;11.15;;;;;;;;;;5014532;28;20069;-67
2021/11/10 04:06:47;;;;;;;28.55;12.55;;;;;;;;;;5014987;28;20095;-67
2021/11/10 04:09:14;;;;;;;28.98;12.57;;;;;;;;;;5032602;28;20476;-66
2021/11/10 04:11:39;;;;;;;23.58;11.98;;;;;;;;;;5014865;28;20432;-66
2021/11/10 04:14:05;;;;;;;22.52;11.80;;;;;;;;;;5032305;28;20044;-66
2021/11/10 04:16:32;;;;;;;25.30;12.25;;;;;;;;;;5032448;28;20021;-67
2021/11/10 04:18:58;;;;;;;26.13;12.25;;;;;;;;;;5032001;28;20485;-67
2021/11/10 04:21:24;;;;;;;23.48;11.65;;;;;;;;;;5014897;28;20397;-67
2021/11/10 04:23:52;;;;;;;24.85;11.48;;;;;;;;;;5032225;28;20048;-67
2021/11/10 04:26:18;;;;;;;;;;;;;;;;;;5015161;28;20453;-67
2021/11/10 04:28:44;;;;;;;23.55;12.80;;;;;;;;;;5031952;28;19947;-67
2021/11/10 04:31:11;;;;;;;25.30;12.60;;;;;;;;;;5032305;28;20013;-66
2021/11/10 04:33:37;;;;;;;24.98;11.77;;;;;;;;;;5014343;28;20025;-68
2021/11/10 04:36:04;;;;;;;22.20;12.02;;;;;;;;;;5032187;28;20484;-67
2021/11/10 04:38:30;;;;;;;22.63;11.60;;;;;;;;;;5032363;28;20017;-67
2021/11/10 04:40:56;;;;;;;26.58;12.82;;;;;;;;;;5031763;28;20060;-68
2021/11/10 04:43:23;;;;;;;24.85;12.50;;;;;;;;;;5014058;28;20100;-68
2021/11/10 04:45:54;;;;;;;22.92;11.20;;;;;;;;;;5014548;28;20503;-68
2021/11/10 04:48:20;;;;;;;25.13;12.35;;;;;;;;;;5031478;28;20164;-67
2021/11/10 04:50:47;;;;;;;25.70;12.77;;;;;;;;;;5014264;28;20026;-68
2021/11/10 04:53:14;;;;;;;25.52;11.65;;;;;;;;;;5013947;28;20477;-66
2021/11/10 04:55:41;;;;;;;25.00;12.48;;;;;;;;;;5031172;28;20067;-68
2021/11/10 04:58:07;;;;;;;23.67;12.23;;;;;;;;;;5031626;28;20032;-68
2021/11/10 05:00:33;;;;;;;23.35;11.63;;;;;;;;;;5031582;28;20337;-66
2021/11/10 05:03:00;;;;;;;23.00;11.52;;;;;;;;;;5031403;28;20083;-68
2021/11/10 05:05:26;;;;;;;26.08;13.23;;;;;;;;;;5013637;28;20041;-67
2021/11/10 05:07:52;;;;;;;22.42;11.27;;;;;;;;;;5014004;28;20025;-68
2021/11/10 05:10:18;;;;;;;24.45;12.55;;;;;;;;;;5031511;28;20028;-67
2021/11/10 05:12:44;;;;;;;23.13;11.57;;;;;;;;;;5031843;28;20025;-67
2021/11/10 05:15:11;;;;;;;23.95;12.68;;;;;;;;;;5013805;28;20029;-67
2021/11/10 05:17:37;;;;;;;25.70;12.07;;;;;;;;;;5031145;28;20052;-67
2021/11/10 05:20:03;;;;;;;25.17;12.60;;;;;;;;;;5014023;28;20498;-67
2021/11/10 05:22:29;;;;;;;23.98;12.75;;;;;;;;;;5031582;28;20035;-69
2021/11/10 05:24:55;;;;;;;25.35;11.90;;;;;;;;;;5013510;28;20033;-66
2021/11/10 05:27:21;;;;;;;23.60;12.05;;;;;;;;;;5013798;28;20424;-66
2021/11/10 05:29:47;;;;;;;23.85;12.00;;;;;;;;;;5031312;28;20103;-65
2021/11/10 05:32:13;;;;;;;25.73;13.90;;;;;;;;;;5031397;28;20481;-68
2021/11/10 05:34:39;;;;;;;25.33;12.45;;;;;;;;;;5031082;28;20064;-67
2021/11/10 05:37:05;;;;;;;26.67;12.68;;;;;;;;;;5031347;28;20033;-67
2021/11/10 05:39:32;;;;;;;24.35;12.40;;;;;;;;;;5047583;23;20382;-62
2021/11/10 05:41:58;;;;;;;23.27;12.45;;;;;;;;;;5030629;28;20140;-65
2021/11/10 05:44:24;;;;;;;23.38;12.27;;;;;;;;;;5032954;28;20043;-66
2021/11/10 05:46:50;;;;;;;27.08;12.45;;;;;;;;;;5032509;28;20547;-65
2021/11/10 05:49:16;;;;;;;25.48;12.18;;;;;;;;;;5032393;28;20033;-66
2021/11/10 05:51:42;;;;;;;28.13;14.27;;;;;;;;;;5016509;28;20088;-66
2021/11/10 05:54:08;;;;;;;24.25;13.48;;;;;;;;;;5033815;28;20512;-66
2021/11/10 05:56:38;;;;;;;26.95;12.73;;;;;;;;;;5034271;28;20029;-66
2021/11/10 05:59:06;;;;;;;28.58;11.80;;;;;;;;;;5034027;28;20505;-67
2021/11/10 06:01:34;;;;;;;28.60;11.90;;;;;;;;;;5015827;28;20065;-66
2021/11/10 06:04:00;;;;;;;26.42;13.60;;;;;;;;;;5032870;28;20424;-67
2021/11/10 06:06:27;;;;;;;27.88;12.75;;;;;;;;;;5033934;28;20492;-66
2021/11/10 06:08:53;;;;;;;29.15;14.70;;;;;;;;;;5015767;28;20025;-66
2021/11/10 06:11:19;;;;;;;25.48;12.43;;;;;;;;;;5016154;28;20536;-66
2021/11/10 06:13:45;;;;;;;24.17;12.27;;;;;;;;;;5015943;28;20026;-66
2021/11/10 06:16:11;;;;;;;28.63;12.15;;;;;;;;;;5033697;28;20031;-66
2021/11/10 06:18:37;;;;;;;27.23;14.43;;;;;;;;;;5015344;28;20116;-65
2021/11/10 06:21:05;;;;;;;22.77;12.38;;;;;;;;;;5033842;28;20033;-65
2021/11/10 06:23:31;;;;;;;26.07;14.50;;;;;;;;;;5015202;28;20392;-65
2021/11/10 06:25:57;;;;;;;23.67;12.35;;;;;;;;;;5033021;28;20071;-66
2021/11/10 06:28:23;;;;;;;28.10;12.65;;;;;;;;;;5030134;28;20049;-66
2021/11/10 06:30:49;;;;;;;25.50;12.43;;;;;;;;;;5027743;28;20029;-64
2021/11/10 06:33:15;;;;;;;156.73;82.65;;;;;;;;;;5032101;28;20024;-65
2021/11/10 06:35:42;;;;;;;136.13;76.18;;;;;;;;;;5032883;28;20072;-65
2021/11/10 06:38:08;;;;;;;87.30;49.97;;;;;;;;;;5011849;28;20033;-65
2021/11/10 06:40:35;;;;;;;115.72;64.35;;;;;;;;;;5012805;28;20100;-65
2021/11/10 06:43:01;;;;;;;41.22;24.13;;;;;;;;;;5012817;28;20128;-64
2021/11/10 06:45:27;;;;;;;33.88;18.60;;;;;;;;;;5020225;28;20025;-66
2021/11/10 06:47:53;;;;;;;23.50;14.05;;;;;;;;;;5032045;28;20531;-66
2021/11/10 06:50:19;;;;;;;26.13;12.77;;;;;;;;;;5032182;28;20025;-65
2021/11/10 06:52:45;;;;;;;25.15;11.90;;;;;;;;;;5032433;28;20026;-66
2021/11/10 06:55:11;;;;;;;24.23;12.40;;;;;;;;;;5033010;28;20033;-67
2021/11/10 06:57:37;;;;;;;24.05;13.88;;;;;;;;;;5014936;28;20488;-65
2021/11/10 07:00:11;;;;;;;25.05;13.70;;;;;;;;;;5032653;28;20025;-65
2021/11/10 07:02:37;;;;;;;26.83;13.68;;;;;;;;;;5024149;28;20033;-66
2021/11/10 07:05:03;;;;;;;28.25;14.70;;;;;;;;;;5014078;28;20037;-65
2021/11/10 07:07:29;;;;;;;31.25;14.20;;;;;;;;;;5014653;28;20051;-66
2021/11/10 07:09:58;;;;;;;28.63;12.60;;;;;;;;;;5014458;28;20083;-66
2021/11/10 07:12:24;;;;;;;31.25;15.85;;;;;;;;;;5032201;28;20096;-64
2021/11/10 07:14:51;;;;;;;30.20;14.40;;;;;;;;;;5031709;28;20040;-65
2021/11/10 07:17:17;;;;;;;30.15;15.10;;;;;;;;;;5032181;28;20033;-65
2021/11/10 07:19:43;;;;;;;33.10;14.85;;;;;;;;;;5014187;28;20107;-65
2021/11/10 07:22:09;;;;;;;28.23;12.93;;;;;;;;;;5031729;28;20056;-65
2021/11/10 07:24:35;;;;;;;26.58;13.90;;;;;;;;;;5031270;28;20022;-64
2021/11/10 07:27:01;;;;;;;28.52;14.38;;;;;;;;;;5031913;28;20033;-65
2021/11/10 07:29:28;;;;;;;25.17;14.00;;;;;;;;;;5031742;28;20397;-65
2021/11/10 07:31:55;;;;;;;26.55;13.10;;;;;;;;;;5013765;28;20099;-66
2021/11/10 07:34:21;;;;;;;29.55;13.82;;;;;;;;;;5031472;28;20035;-65
2021/11/10 07:36:47;;;;;;;29.35;13.75;;;;;;;;;;5031820;28;20490;-65
2021/11/10 07:39:13;;;;;;;27.95;14.07;;;;;;;;;;5032314;28;20054;-73
2021/11/10 07:41:39;;;;;;;26.27;12.38;;;;;;;;;;5013800;28;20037;-65
2021/11/10 07:44:07;;;;;;;27.17;13.35;;;;;;;;;;5031350;28;20029;-65
2021/11/10 07:46:34;;;;;;;24.58;12.15;;;;;;;;;;5031450;28;20021;-64
2021/11/10 07:49:00;;;;;;;24.15;12.48;;;;;;;;;;5031761;28;20025;-64
2021/11/10 07:51:26;;;;;;;24.30;13.70;;;;;;;;;;5030743;28;20022;-65
2021/11/10 07:53:54;;;;;;;27.05;13.10;;;;;;;;;;5031015;28;20028;-66
2021/11/10 07:56:20;;;;;;;27.00;14.90;;;;;;;;;;5031317;28;20056;-66
2021/11/10 07:58:46;;;;;;;27.88;13.23;;;;;;;;;;5031598;28;20350;-66
2021/11/10 08:01:13;;;;;;;22.35;12.45;;;;;;;;;;5031138;28;20105;-66
2021/11/10 08:03:39;;;;;;;27.08;13.27;;;;;;;;;;5012469;28;20037;-67
2021/11/10 08:06:05;;;;;;;25.70;12.88;;;;;;;;;;5031700;28;20451;-66
2021/11/10 08:08:31;;;;;;;24.05;12.88;;;;;;;;;;5031912;28;20116;-67
2021/11/10 08:10:59;;;;;;;31.42;13.18;;;;;;;;;;5014443;28;20625;-67
2021/11/10 08:13:25;;;;;;;27.20;15.07;;;;;;;;;;5032081;28;20033;-67
2021/11/10 08:15:52;;;;;;;27.20;15.93;;;;;;;;;;5031239;28;20057;-67
2021/11/10 08:18:18;;;;;;;26.33;13.60;;;;;;;;;;5013484;28;20113;-69
2021/11/10 08:20:44;;;;;;;25.70;13.93;;;;;;;;;;5031301;28;20502;-69
2021/11/10 08:23:13;;;;;;;25.27;13.80;;;;;;;;;;5013378;28;20059;-67
2021/11/10 08:25:39;;;;;;;26.13;13.32;;;;;;;;;;5031255;28;20021;-67
2021/11/10 08:28:05;;;;;;;26.15;13.70;;;;;;;;;;5031342;28;20370;-69
2021/11/10 08:30:31;;;;;;;23.75;12.57;;;;;;;;;;5031014;28;20025;-68
2021/11/10 08:32:57;;;;;;;26.13;12.82;;;;;;;;;;5031406;28;20022;-68
2021/11/10 08:35:24;;;;;;;27.77;13.75;;;;;;;;;;5031046;28;20025;-68
2021/11/10 08:37:50;;;;;;;25.85;13.07;;;;;;;;;;5013373;28;20040;-67
2021/11/10 08:40:16;;;;;;;24.63;12.63;;;;;;;;;;5013235;28;20041;-67
2021/11/10 08:42:43;;;;;;;24.52;13.13;;;;;;;;;;5013623;28;20111;-68
2021/11/10 08:45:19;;;;;;;28.35;13.10;;;;;;;;;;5030881;28;20025;-68
2021/11/10 08:47:46;;;;;;;25.98;13.30;;;;;;;;;;5031089;28;20480;-70
2021/11/10 08:50:13;;;;;;;22.15;12.00;;;;;;;;;;5030966;28;20036;-67
2021/11/10 08:52:40;;;;;;;23.25;13.20;;;;;;;;;;5031256;28;20025;-69
2021/11/10 08:55:07;;;;;;;23.08;11.38;;;;;;;;;;5030792;28;20025;-68
2021/11/10 08:57:35;;;;;;;21.90;11.63;;;;;;;;;;5030629;28;20036;-67
2021/11/10 09:00:02;;;;;;;22.55;12.20;;;;;;;;;;5030727;28;20037;-66
2021/11/10 09:02:27;;;;;;;22.67;12.57;;;;;;;;;;5030278;28;20072;-68
2021/11/10 09:04:53;;;;;;;24.38;12.43;;;;;;;;;;5030805;28;20221;-66
2021/11/10 09:07:19;;;;;;;24.73;11.57;;;;;;;;;;5030820;28;20025;-67
2021/11/10 09:09:45;;;;;;;25.05;13.30;;;;;;;;;;5030302;28;20085;-67
2021/11/10 09:12:12;;;;;;;29.15;14.35;;;;;;;;;;5030454;28;20026;-67
2021/11/10 09:14:38;;;;;;;28.02;14.00;;;;;;;;;;5030659;28;20116;-66
2021/11/10 09:17:04;;;;;;;25.42;12.60;;;;;;;;;;5033881;28;20040;-67
2021/11/10 09:19:30;;;;;;;23.30;12.05;;;;;;;;;;5034230;28;20035;-67
2021/11/10 09:21:56;;;;;;;24.15;11.75;;;;;;;;;;5034767;28;20037;-67
2021/11/10 09:24:22;;;;;;;23.45;11.48;;;;;;;;;;5016533;28;20025;-67
2021/11/10 09:26:49;;;;;;;23.52;12.90;;;;;;;;;;5016710;28;20397;-67
2021/11/10 09:29:17;;;;;;;21.65;11.40;;;;;;;;;;5034605;28;20093;-68
2021/11/10 09:31:43;;;;;;;24.15;11.40;;;;;;;;;;5034332;28;20021;-67
2021/11/10 09:34:12;;;;;;;24.23;13.23;;;;;;;;;;5033719;28;20523;-68
2021/11/10 09:36:39;;;;;;;;;;;;;;;;;;5034432;28;20017;-67
2021/11/10 09:39:06;;;;;;;21.25;11.10;;;;;;;;;;5016454;28;19941;-67
2021/11/10 09:41:33;;;;;;;25.02;11.82;;;;;;;;;;5033910;28;20033;-68
2021/11/10 09:43:59;;;;;;;25.25;12.82;;;;;;;;;;5033852;28;20025;-67
2021/11/10 09:46:26;;;;;;;25.45;12.02;;;;;;;;;;5033985;28;20127;-67
2021/11/10 09:48:53;;;;;;;22.80;11.45;;;;;;;;;;5033573;28;20030;-67
2021/11/10 09:51:19;;;;;;;26.02;13.73;;;;;;;;;;5016032;28;20401;-67
2021/11/10 09:53:45;;;;;;;25.55;11.80;;;;;;;;;;5015851;28;20029;-67
2021/11/10 09:56:11;;;;;;;21.58;11.60;;;;;;;;;;5033550;28;20470;-67
2021/11/10 09:58:39;;;;;;;22.42;12.43;;;;;;;;;;5033428;28;20028;-68
2021/11/10 10:01:07;;;;;;;22.20;11.93;;;;;;;;;;5033387;28;20557;-67
2021/11/10 10:03:34;;;;;;;27.95;12.00;;;;;;;;;;5032931;28;20091;-68
2021/11/10 10:06:00;;;;;;;21.98;12.07;;;;;;;;;;5033537;28;20028;-67
2021/11/10 10:08:26;;;;;;;22.95;11.82;;;;;;;;;;5032841;28;20386;-65
2021/11/10 10:10:52;;;;;;;22.85;11.77;;;;;;;;;;5015501;28;20060;-67
2021/11/10 10:13:20;;;;;;;23.33;12.45;;;;;;;;;;5033329;28;20053;-67
2021/11/10 10:15:47;;;;;;;20.98;11.93;;;;;;;;;;5033330;28;20026;-67
2021/11/10 10:18:15;;;;;;;20.13;11.53;;;;;;;;;;5033302;28;20056;-67
2021/11/10 10:20:42;;;;;;;21.48;11.02;;;;;;;;;;5033437;28;20022;-67
2021/11/10 10:23:10;;;;;;;21.70;11.50;;;;;;;;;;5015151;28;20037;-67
2021/11/10 10:25:39;;;;;;;21.98;10.93;;;;;;;;;;5032615;28;20025;-67
2021/11/10 10:28:06;;;;;;;22.33;12.15;;;;;;;;;;5014892;28;20056;-67
2021/11/10 10:30:31;;;;;;;22.13;12.25;;;;;;;;;;5032976;28;20040;-67
2021/11/10 10:33:06;;;;;;;22.90;12.50;;;;;;;;;;5032866;28;20382;-67
2021/11/10 10:35:34;;;;;;;21.65;12.10;;;;;;;;;;5014516;28;20404;-67
2021/11/10 10:38:00;;;;;;;20.85;12.77;;;;;;;;;;5032878;28;20033;-68
2021/11/10 10:40:27;;;;;;;23.73;14.63;;;;;;;;;;5032775;28;20040;-67
2021/11/10 10:42:54;;;;;;;28.80;14.18;;;17.20;99.90;;;;;;5032102;28;20660;-68
2021/11/10 10:45:40;;;;;;;22.55;13.10;;;;;;;;;;5014644;28;20112;-68
2021/11/10 10:48:09;;;;;;;22.80;12.85;;;;;;;;;;5014853;28;20021;-67
2021/11/10 10:50:36;;;;;;;21.60;12.77;;;;;;;;;;5032251;28;20037;-67
2021/11/10 10:53:02;;;;;;;24.02;15.18;;;;;;;;;;5032326;28;20022;-67
2021/11/10 10:55:36;;;;;;;21.70;13.63;;;;;;;;;;5031864;28;20068;-67
2021/11/10 10:58:02;;;;;;;25.67;15.20;;;;;;;;;;5014857;28;20029;-67
2021/11/10 11:00:29;;;;;;;26.13;14.57;;;;;;;;;;5032545;28;20651;-67
2021/11/10 11:02:56;;;;;;;26.10;15.60;;;;;;;;;;5032621;28;20115;-68
2021/11/10 11:05:41;;;;;;;23.25;14.57;;;;;;;;;;5032477;28;20080;-67
2021/11/10 11:08:27;;;;;;;25.10;14.70;;;;;;;;;;5014252;28;20084;-68
2021/11/10 11:10:57;;;;;;;23.55;14.93;;;;;;;;;;5032776;28;20013;-68
2021/11/10 11:13:42;;;;;;;20.63;13.68;;;;;;;;;;5014671;28;20060;-67
2021/11/10 11:16:09;;;;;;;22.60;14.63;;;;;;;;;;5032540;28;20032;-68
2021/11/10 11:18:36;;;;;;;22.70;14.63;;;;;;;;;;5014539;28;20030;-67
2021/11/10 11:21:21;;;;;;;21.30;15.30;;;;;;;;;;5014377;28;20025;-67
2021/11/10 11:23:47;;;;;;;21.10;14.95;;;;;;;;;;5031915;28;20514;-67
2021/11/10 11:26:33;;;;;;;23.08;14.02;;;;;;;;;;5014016;28;20044;-66
2021/11/10 11:29:00;;;;;;;21.00;14.68;;;;;;;;;;5032000;28;20025;-66
2021/11/10 11:31:34;;;;;;;22.60;14.80;;;9.30;99.90;;;;;;5031952;28;20026;-67
2021/11/10 11:34:01;;;;;;;25.40;14.50;;;15.50;99.90;;;;;;5031560;28;20462;-66
2021/11/10 11:36:45;;;;;;;23.83;14.18;;;15.60;99.90;;;;;;5032262;28;20101;-66
2021/11/10 11:39:11;;;;;;;23.02;14.00;;;;;;;;;;5030995;28;20493;-67
2021/11/10 11:41:39;;;;;;;22.20;14.35;;;;;;;;;;5036584;22;20045;-67
2021/11/10 11:44:05;;;;;;;23.45;14.30;;;;;;;;;;5030838;28;20367;-68
2021/11/10 11:46:31;;;;;;;24.95;15.00;;;;;;;;;;5014772;28;20057;-69
2021/11/10 11:48:57;;;;;;;24.80;14.15;;;;;;;;;;5014891;28;20536;-70
2021/11/10 11:51:24;;;;;;;22.35;14.38;;;;;;;;;;5027818;28;20507;-67
2021/11/10 11:53:51;;;;;;;20.15;14.38;;;;;;;;;;5033996;28;20025;-69
2021/11/10 11:56:19;;;;;;;23.65;14.75;;;;;;;;;;5052429;28;20036;-68
2021/11/10 11:58:48;;;;;;;23.57;15.60;;;;;;;;;;5052095;28;20017;-67
2021/11/10 12:01:15;;;;;;;22.50;13.73;;;;;;;;;;5025864;28;20025;-68
2021/11/10 12:04:07;;;;;;;23.05;14.25;;;;;;;;;;5034328;28;20024;-68
2021/11/10 12:06:33;;;;;;;22.88;13.63;;;;;;;;;;5041393;28;20044;-67
2021/11/10 12:09:01;;;;;;;24.92;14.38;;;;;;;;;;5051756;28;20444;-67
2021/11/10 12:11:28;;;;;;;24.33;14.38;;;;;;;;;;5033373;28;20032;-67
2021/11/10 12:14:07;;;;;;;20.80;14.00;;;;;;;;;;5051726;28;20056;-67
2021/11/10 12:16:45;;;;;;;22.83;14.45;;;;;;;;;;5033893;28;20032;-67
2021/11/10 12:19:12;;;;;;;25.90;14.82;;;;;;;;;;5014363;28;20362;-68
2021/11/10 12:21:48;;;;;;;23.20;14.60;;;;;;;;;;5014325;28;20160;-68
2021/11/10 12:24:16;;;;;;;24.75;15.10;;;;;;;;;;5031727;28;20477;-68
2021/11/10 12:27:02;;;;;;;24.15;14.52;;;;;;;;;;5032110;28;20053;-68
2021/11/10 12:29:46;;;;;;;22.05;12.45;;;;;;;;;;5019730;28;20031;-68
2021/11/10 12:32:13;;;;;;;22.13;12.90;;;;;;;;;;5052237;28;20060;-68
2021/11/10 12:34:40;;;;;;;19.55;12.85;;;;;;;;;;5049855;28;20053;-68
2021/11/10 12:37:08;;;;;;;22.90;13.48;;;;;;;;;;5033979;28;20468;-68
2021/11/10 12:39:34;;;;;;;;;;;;;;;;;;5050541;28;20362;-69
2021/11/10 12:42:01;;;;;;;23.02;13.20;;;;;;;;;;5013695;28;20011;-68
2021/11/10 12:44:38;;;;;;;23.50;13.70;;;;;;;;;;5031857;28;20025;-67
2021/11/10 12:47:04;;;;;;;22.65;14.35;;;;;;;;;;5031364;28;20547;-67
2021/11/10 12:49:31;;;;;;;24.30;14.15;;;;;;;;;;5014174;28;20022;-68
2021/11/10 12:52:13;;;;;;;26.42;15.77;;;;;;;;;;5034798;28;20022;-68
2021/11/10 12:54:39;;;;;;;22.42;14.30;;;;;;;;;;5051768;28;20420;-70
2021/11/10 12:57:06;;;;;;;23.85;14.48;;;;;;;;;;5034132;28;20392;-70
2021/11/10 12:59:37;;;;;;;23.73;15.52;;;;;;;;;;5033885;28;20059;-68
2021/11/10 13:02:13;;;;;;;26.77;16.17;;;;;;;;;;5031112;28;20053;-68
2021/11/10 13:04:44;;;;;;;24.67;16.35;;;;;;;;;;5031218;28;20381;-68
2021/11/10 13:07:17;;;;;;;22.90;14.90;;;;;;;;;;4685340;28;9999728;-67
2021/11/10 13:09:43;;;;;;;21.23;14.85;;;;;;;;;;5030078;28;20039;-67
2021/11/10 13:12:13;;;;;;;25.60;16.70;;;;;;;;;;5048734;28;20021;-69
2021/11/10 13:14:40;;;;;;;22.92;14.65;;;;;;;;;;5048811;28;20033;-69
2021/11/10 13:17:09;;;;;;;24.30;17.05;;;;;;;;;;5048538;28;20073;-68
2021/11/10 13:20:05;;;;;;;28.55;15.90;;;;;;;;;;5030971;28;20741;-69
2021/11/10 13:22:32;;;;;;;22.60;15.45;;;;;;;;;;5010606;28;20040;-69
2021/11/10 13:25:00;;;;;;;27.60;15.93;;;;;;;;;;5017531;28;20067;-70
2021/11/10 13:27:29;;;;;;;23.23;15.15;;;;;;;;;;5051277;28;20048;-67
2021/11/10 13:29:55;;;;;;;23.55;15.98;;;;;;;;;;5033148;28;20121;-69
2021/11/10 13:32:22;;;;;;;23.10;16.70;;;;;;;;;;5032874;28;20096;-69
2021/11/10 13:34:49;;;;;;;23.95;16.65;;;;;;;;;;5032830;28;20389;-68
2021/11/10 13:37:16;;;;;;;24.60;15.95;;;;;;;;;;5050402;28;20021;-69
2021/11/10 13:39:43;;;;;;;24.77;16.25;;;;;;;;;;5050669;28;20060;-67
2021/11/10 13:42:12;;;;;;;26.63;17.33;;;;;;;;;;5050486;28;20098;-67
2021/11/10 13:44:38;;;;;;;25.83;15.93;;;;;;;;;;5031750;28;20029;-68
2021/11/10 13:47:06;;;;;;;23.13;17.20;;;;;;;;;;5051254;28;20025;-68
2021/11/10 13:49:33;;;;;;;23.00;16.83;;;;;;;;;;5050645;28;20025;-68
2021/11/10 13:52:18;;;;;;;21.20;15.70;;;;;;;;;;4763620;28;10001183;-67
2021/11/10 13:54:44;;;;;;;23.35;16.38;;;;;;;;;;5010249;28;20278;-68
2021/11/10 13:57:23;;;;;;;26.75;17.88;;;;;;;;;;5028188;28;20122;-68
2021/11/10 13:59:50;;;;;;;22.88;16.77;;;;;;;;;;5010626;28;20017;-67
2021/11/10 14:02:17;;;;;;;26.33;17.45;;;;;;;;;;5030068;28;20033;-69
2021/11/10 14:04:54;;;;;;;28.17;17.23;;;;;;;;;;5031999;28;20451;-67
2021/11/10 14:07:24;;;;;;;27.58;18.10;;;;;;;;;;5031810;28;20544;-68
2021/11/10 14:10:09;;;;;;;24.92;16.77;;;;;;;;;;5014226;28;20123;-70
2021/11/10 14:12:47;;;;;;;28.23;17.45;;;;;;;;;;5032234;28;20117;-68
2021/11/10 14:15:20;;;;;;;23.90;16.08;;;;;;;;;;5036346;28;20029;-68
2021/11/10 14:17:49;;;;;;;26.15;17.13;;;;;;;;;;5050582;28;20025;-69